sensor_id;sensor_type;location;lat;lon;timestamp;P1;durP1;ratioP1;P2;durP2;ratioP2
27383;SDS011;14851;51.166;4.760;2023-07-13T00:00:46;4.97;;;1.38;;
27383;SDS011;14851;51.166;4.760;2023-07-13T00:03:12;5.60;;;1.25;;
27383;SDS011;14851;51.166;4.760;2023-07-13T00:05:40;6.53;;;1.50;;
27383;SDS011;14851;51.166;4.760;2023-07-13T00:08:07;4.55;;;1.27;;
27383;SDS011;14851;51.166;4.760;2023-07-13T00:10:42;6.10;;;1.63;;
27383;SDS011;14851;51.166;4.760;2023-07-13T00:13:10;4.88;;;1.45;;
27383;SDS011;14851;51.166;4.760;2023-07-13T00:15:36;4.82;;;1.63;;
27383;SDS011;14851;51.166;4.760;2023-07-13T00:18:02;8.90;;;1.95;;
27383;SDS011;14851;51.166;4.760;2023-07-13T00:20:28;8.88;;;2.22;;
27383;SDS011;14851;51.166;4.760;2023-07-13T00:22:54;7.72;;;1.70;;
27383;SDS011;14851;51.166;4.760;2023-07-13T00:25:20;5.13;;;1.42;;
27383;SDS011;14851;51.166;4.760;2023-07-13T00:27:49;6.25;;;1.90;;
27383;SDS011;14851;51.166;4.760;2023-07-13T00:30:16;8.88;;;1.70;;
27383;SDS011;14851;51.166;4.760;2023-07-13T00:32:43;7.22;;;1.75;;
27383;SDS011;14851;51.166;4.760;2023-07-13T00:35:12;3.35;;;1.13;;
27383;SDS011;14851;51.166;4.760;2023-07-13T00:40:06;4.45;;;1.73;;
27383;SDS011;14851;51.166;4.760;2023-07-13T00:42:35;4.95;;;1.55;;
27383;SDS011;14851;51.166;4.760;2023-07-13T00:45:05;6.80;;;1.63;;
27383;SDS011;14851;51.166;4.760;2023-07-13T00:50:17;5.93;;;1.77;;
27383;SDS011;14851;51.166;4.760;2023-07-13T00:52:46;5.10;;;1.70;;
27383;SDS011;14851;51.166;4.760;2023-07-13T00:55:18;6.55;;;1.52;;
27383;SDS011;14851;51.166;4.760;2023-07-13T00:57:47;5.88;;;1.48;;
27383;SDS011;14851;51.166;4.760;2023-07-13T01:00:13;5.45;;;1.60;;
27383;SDS011;14851;51.166;4.760;2023-07-13T01:02:40;6.93;;;2.10;;
27383;SDS011;14851;51.166;4.760;2023-07-13T01:05:12;5.93;;;1.70;;
27383;SDS011;14851;51.166;4.760;2023-07-13T01:07:39;7.85;;;1.48;;
27383;SDS011;14851;51.166;4.760;2023-07-13T01:10:09;8.38;;;1.80;;
27383;SDS011;14851;51.166;4.760;2023-07-13T01:12:39;6.80;;;1.55;;
27383;SDS011;14851;51.166;4.760;2023-07-13T01:15:32;9.45;;;1.85;;
27383;SDS011;14851;51.166;4.760;2023-07-13T01:18:07;7.15;;;1.80;;
27383;SDS011;14851;51.166;4.760;2023-07-13T01:20:36;8.98;;;1.60;;
27383;SDS011;14851;51.166;4.760;2023-07-13T01:23:05;7.47;;;1.80;;
27383;SDS011;14851;51.166;4.760;2023-07-13T01:25:35;4.75;;;1.13;;
27383;SDS011;14851;51.166;4.760;2023-07-13T01:28:03;5.95;;;1.70;;
27383;SDS011;14851;51.166;4.760;2023-07-13T01:30:30;5.55;;;1.65;;
27383;SDS011;14851;51.166;4.760;2023-07-13T01:32:57;7.30;;;1.90;;
27383;SDS011;14851;51.166;4.760;2023-07-13T01:35:25;5.47;;;1.83;;
27383;SDS011;14851;51.166;4.760;2023-07-13T01:37:52;9.65;;;1.83;;
27383;SDS011;14851;51.166;4.760;2023-07-13T01:40:19;6.90;;;1.83;;
27383;SDS011;14851;51.166;4.760;2023-07-13T01:42:45;5.40;;;1.20;;
27383;SDS011;14851;51.166;4.760;2023-07-13T01:45:11;8.70;;;1.85;;
27383;SDS011;14851;51.166;4.760;2023-07-13T01:47:37;13.65;;;2.20;;
27383;SDS011;14851;51.166;4.760;2023-07-13T01:50:03;8.07;;;2.53;;
27383;SDS011;14851;51.166;4.760;2023-07-13T01:52:29;5.85;;;1.77;;
27383;SDS011;14851;51.166;4.760;2023-07-13T01:54:57;8.07;;;1.80;;
27383;SDS011;14851;51.166;4.760;2023-07-13T01:57:23;7.13;;;2.05;;
27383;SDS011;14851;51.166;4.760;2023-07-13T01:59:51;9.40;;;1.85;;
27383;SDS011;14851;51.166;4.760;2023-07-13T02:02:17;7.40;;;1.90;;
27383;SDS011;14851;51.166;4.760;2023-07-13T02:04:46;8.85;;;1.80;;
27383;SDS011;14851;51.166;4.760;2023-07-13T02:07:12;7.13;;;2.30;;
27383;SDS011;14851;51.166;4.760;2023-07-13T02:09:40;5.85;;;1.90;;
27383;SDS011;14851;51.166;4.760;2023-07-13T02:12:07;8.27;;;1.60;;
27383;SDS011;14851;51.166;4.760;2023-07-13T02:14:34;8.88;;;2.67;;
27383;SDS011;14851;51.166;4.760;2023-07-13T02:17:00;7.22;;;1.98;;
27383;SDS011;14851;51.166;4.760;2023-07-13T02:19:26;8.05;;;1.85;;
27383;SDS011;14851;51.166;4.760;2023-07-13T02:21:51;8.23;;;2.05;;
27383;SDS011;14851;51.166;4.760;2023-07-13T02:24:17;9.10;;;2.08;;
27383;SDS011;14851;51.166;4.760;2023-07-13T02:26:46;5.85;;;1.60;;
27383;SDS011;14851;51.166;4.760;2023-07-13T02:29:13;6.65;;;2.05;;
27383;SDS011;14851;51.166;4.760;2023-07-13T02:31:44;6.97;;;1.88;;
27383;SDS011;14851;51.166;4.760;2023-07-13T02:34:12;7.22;;;2.13;;
27383;SDS011;14851;51.166;4.760;2023-07-13T02:36:40;8.57;;;2.92;;
27383;SDS011;14851;51.166;4.760;2023-07-13T02:39:08;5.80;;;2.10;;
27383;SDS011;14851;51.166;4.760;2023-07-13T02:41:36;10.68;;;2.50;;
27383;SDS011;14851;51.166;4.760;2023-07-13T02:44:02;8.93;;;2.78;;
27383;SDS011;14851;51.166;4.760;2023-07-13T02:46:29;7.95;;;2.05;;
27383;SDS011;14851;51.166;4.760;2023-07-13T02:48:56;5.20;;;1.70;;
27383;SDS011;14851;51.166;4.760;2023-07-13T02:51:26;9.00;;;2.37;;
27383;SDS011;14851;51.166;4.760;2023-07-13T02:53:54;12.35;;;2.20;;
27383;SDS011;14851;51.166;4.760;2023-07-13T02:56:24;7.55;;;2.42;;
27383;SDS011;14851;51.166;4.760;2023-07-13T02:58:51;6.95;;;1.67;;
27383;SDS011;14851;51.166;4.760;2023-07-13T03:01:18;7.70;;;2.15;;
27383;SDS011;14851;51.166;4.760;2023-07-13T03:03:45;7.88;;;2.30;;
27383;SDS011;14851;51.166;4.760;2023-07-13T03:06:12;9.73;;;2.60;;
27383;SDS011;14851;51.166;4.760;2023-07-13T03:08:47;9.15;;;2.38;;
27383;SDS011;14851;51.166;4.760;2023-07-13T03:11:16;6.30;;;1.90;;
27383;SDS011;14851;51.166;4.760;2023-07-13T03:13:50;7.55;;;2.88;;
27383;SDS011;14851;51.166;4.760;2023-07-13T03:16:18;7.60;;;2.08;;
27383;SDS011;14851;51.166;4.760;2023-07-13T03:18:48;9.40;;;2.78;;
27383;SDS011;14851;51.166;4.760;2023-07-13T03:21:16;14.50;;;4.60;;
27383;SDS011;14851;51.166;4.760;2023-07-13T03:23:42;9.82;;;2.20;;
27383;SDS011;14851;51.166;4.760;2023-07-13T03:26:10;10.05;;;2.42;;
27383;SDS011;14851;51.166;4.760;2023-07-13T03:28:39;13.27;;;2.38;;
27383;SDS011;14851;51.166;4.760;2023-07-13T03:31:18;7.93;;;2.45;;
27383;SDS011;14851;51.166;4.760;2023-07-13T03:33:46;12.68;;;2.90;;
27383;SDS011;14851;51.166;4.760;2023-07-13T03:36:15;11.68;;;2.97;;
27383;SDS011;14851;51.166;4.760;2023-07-13T03:38:49;10.80;;;3.15;;
27383;SDS011;14851;51.166;4.760;2023-07-13T03:41:20;8.85;;;2.50;;
27383;SDS011;14851;51.166;4.760;2023-07-13T03:43:48;11.60;;;2.72;;
27383;SDS011;14851;51.166;4.760;2023-07-13T03:46:16;13.30;;;2.85;;
27383;SDS011;14851;51.166;4.760;2023-07-13T03:48:44;13.07;;;2.85;;
27383;SDS011;14851;51.166;4.760;2023-07-13T03:51:11;14.38;;;2.53;;
27383;SDS011;14851;51.166;4.760;2023-07-13T03:53:40;11.57;;;3.17;;
27383;SDS011;14851;51.166;4.760;2023-07-13T03:56:09;15.90;;;3.90;;
27383;SDS011;14851;51.166;4.760;2023-07-13T03:58:39;14.68;;;3.70;;
27383;SDS011;14851;51.166;4.760;2023-07-13T04:01:14;12.25;;;2.90;;
27383;SDS011;14851;51.166;4.760;2023-07-13T04:03:42;17.00;;;3.30;;
27383;SDS011;14851;51.166;4.760;2023-07-13T04:06:14;9.30;;;2.78;;
27383;SDS011;14851;51.166;4.760;2023-07-13T04:08:47;10.07;;;2.53;;
27383;SDS011;14851;51.166;4.760;2023-07-13T04:11:18;9.15;;;2.28;;
27383;SDS011;14851;51.166;4.760;2023-07-13T04:13:45;7.25;;;2.30;;
27383;SDS011;14851;51.166;4.760;2023-07-13T04:16:15;12.60;;;3.40;;
27383;SDS011;14851;51.166;4.760;2023-07-13T04:18:41;13.80;;;3.33;;
27383;SDS011;14851;51.166;4.760;2023-07-13T04:21:13;11.85;;;3.28;;
27383;SDS011;14851;51.166;4.760;2023-07-13T04:23:40;8.02;;;2.80;;
27383;SDS011;14851;51.166;4.760;2023-07-13T04:26:06;9.45;;;3.50;;
27383;SDS011;14851;51.166;4.760;2023-07-13T04:28:32;19.08;;;4.15;;
27383;SDS011;14851;51.166;4.760;2023-07-13T04:30:59;13.43;;;3.88;;
27383;SDS011;14851;51.166;4.760;2023-07-13T04:33:25;11.95;;;3.78;;
27383;SDS011;14851;51.166;4.760;2023-07-13T04:35:53;10.88;;;4.57;;
27383;SDS011;14851;51.166;4.760;2023-07-13T04:38:29;10.95;;;3.55;;
27383;SDS011;14851;51.166;4.760;2023-07-13T04:40:58;13.60;;;3.50;;
27383;SDS011;14851;51.166;4.760;2023-07-13T04:43:27;13.23;;;3.53;;
27383;SDS011;14851;51.166;4.760;2023-07-13T04:45:54;11.93;;;3.85;;
27383;SDS011;14851;51.166;4.760;2023-07-13T04:48:21;14.90;;;3.78;;
27383;SDS011;14851;51.166;4.760;2023-07-13T04:50:47;13.10;;;4.43;;
27383;SDS011;14851;51.166;4.760;2023-07-13T04:53:19;14.55;;;4.05;;
27383;SDS011;14851;51.166;4.760;2023-07-13T04:55:44;17.17;;;4.40;;
27383;SDS011;14851;51.166;4.760;2023-07-13T04:58:11;12.18;;;3.42;;
27383;SDS011;14851;51.166;4.760;2023-07-13T05:00:37;12.65;;;3.65;;
27383;SDS011;14851;51.166;4.760;2023-07-13T05:03:05;14.45;;;3.60;;
27383;SDS011;14851;51.166;4.760;2023-07-13T05:05:31;18.92;;;3.88;;
27383;SDS011;14851;51.166;4.760;2023-07-13T05:07:57;13.35;;;3.45;;
27383;SDS011;14851;51.166;4.760;2023-07-13T05:10:27;18.13;;;4.20;;
27383;SDS011;14851;51.166;4.760;2023-07-13T05:12:56;11.98;;;3.63;;
27383;SDS011;14851;51.166;4.760;2023-07-13T05:15:27;10.45;;;3.45;;
27383;SDS011;14851;51.166;4.760;2023-07-13T05:17:53;8.68;;;2.97;;
27383;SDS011;14851;51.166;4.760;2023-07-13T05:20:22;13.15;;;3.63;;
27383;SDS011;14851;51.166;4.760;2023-07-13T05:22:48;12.32;;;3.70;;
27383;SDS011;14851;51.166;4.760;2023-07-13T05:25:13;13.07;;;3.10;;
27383;SDS011;14851;51.166;4.760;2023-07-13T05:27:39;12.13;;;4.22;;
27383;SDS011;14851;51.166;4.760;2023-07-13T05:30:11;15.10;;;4.40;;
27383;SDS011;14851;51.166;4.760;2023-07-13T05:32:37;8.73;;;3.22;;
27383;SDS011;14851;51.166;4.760;2023-07-13T05:35:03;13.00;;;3.42;;
27383;SDS011;14851;51.166;4.760;2023-07-13T05:37:30;15.60;;;3.60;;
27383;SDS011;14851;51.166;4.760;2023-07-13T05:39:56;13.95;;;3.30;;
27383;SDS011;14851;51.166;4.760;2023-07-13T05:42:22;15.07;;;3.10;;
27383;SDS011;14851;51.166;4.760;2023-07-13T05:44:48;10.25;;;2.67;;
27383;SDS011;14851;51.166;4.760;2023-07-13T05:47:14;13.05;;;3.15;;
27383;SDS011;14851;51.166;4.760;2023-07-13T05:49:43;13.07;;;3.15;;
27383;SDS011;14851;51.166;4.760;2023-07-13T05:52:09;13.15;;;3.25;;
27383;SDS011;14851;51.166;4.760;2023-07-13T05:54:37;16.85;;;3.35;;
27383;SDS011;14851;51.166;4.760;2023-07-13T05:57:03;13.50;;;3.08;;
27383;SDS011;14851;51.166;4.760;2023-07-13T05:59:29;14.65;;;4.10;;
27383;SDS011;14851;51.166;4.760;2023-07-13T06:01:55;12.80;;;3.47;;
27383;SDS011;14851;51.166;4.760;2023-07-13T06:04:20;11.40;;;3.03;;
27383;SDS011;14851;51.166;4.760;2023-07-13T06:06:47;11.63;;;3.47;;
27383;SDS011;14851;51.166;4.760;2023-07-13T06:09:22;9.98;;;2.85;;
27383;SDS011;14851;51.166;4.760;2023-07-13T06:12:10;10.82;;;3.33;;
27383;SDS011;14851;51.166;4.760;2023-07-13T06:14:38;15.18;;;4.05;;
27383;SDS011;14851;51.166;4.760;2023-07-13T06:17:04;15.50;;;3.15;;
27383;SDS011;14851;51.166;4.760;2023-07-13T06:19:31;12.98;;;3.20;;
27383;SDS011;14851;51.166;4.760;2023-07-13T06:21:57;12.48;;;4.43;;
27383;SDS011;14851;51.166;4.760;2023-07-13T06:24:25;9.82;;;2.95;;
27383;SDS011;14851;51.166;4.760;2023-07-13T06:26:51;13.52;;;3.95;;
27383;SDS011;14851;51.166;4.760;2023-07-13T06:29:18;13.20;;;2.80;;
27383;SDS011;14851;51.166;4.760;2023-07-13T06:31:43;13.20;;;3.47;;
27383;SDS011;14851;51.166;4.760;2023-07-13T06:34:09;12.95;;;3.80;;
27383;SDS011;14851;51.166;4.760;2023-07-13T06:36:35;13.43;;;3.97;;
27383;SDS011;14851;51.166;4.760;2023-07-13T06:39:02;18.08;;;3.85;;
27383;SDS011;14851;51.166;4.760;2023-07-13T06:41:28;11.75;;;5.53;;
27383;SDS011;14851;51.166;4.760;2023-07-13T06:43:57;11.95;;;4.20;;
27383;SDS011;14851;51.166;4.760;2023-07-13T06:46:23;16.33;;;3.55;;
27383;SDS011;14851;51.166;4.760;2023-07-13T06:48:51;13.20;;;4.60;;
27383;SDS011;14851;51.166;4.760;2023-07-13T06:51:16;16.83;;;3.72;;
27383;SDS011;14851;51.166;4.760;2023-07-13T06:53:42;16.15;;;3.63;;
27383;SDS011;14851;51.166;4.760;2023-07-13T06:56:09;14.02;;;3.45;;
27383;SDS011;14851;51.166;4.760;2023-07-13T06:58:38;15.25;;;3.53;;
27383;SDS011;14851;51.166;4.760;2023-07-13T07:01:04;11.40;;;3.15;;
27383;SDS011;14851;51.166;4.760;2023-07-13T07:03:30;14.63;;;3.70;;
27383;SDS011;14851;51.166;4.760;2023-07-13T07:06:12;13.00;;;3.67;;
27383;SDS011;14851;51.166;4.760;2023-07-13T07:08:43;10.38;;;3.00;;
27383;SDS011;14851;51.166;4.760;2023-07-13T07:11:14;15.20;;;3.10;;
27383;SDS011;14851;51.166;4.760;2023-07-13T07:13:44;13.60;;;2.80;;
27383;SDS011;14851;51.166;4.760;2023-07-13T07:16:10;16.67;;;3.28;;
27383;SDS011;14851;51.166;4.760;2023-07-13T07:18:41;18.83;;;3.95;;
27383;SDS011;14851;51.166;4.760;2023-07-13T07:21:07;12.35;;;3.38;;
27383;SDS011;14851;51.166;4.760;2023-07-13T07:23:34;13.70;;;3.70;;
27383;SDS011;14851;51.166;4.760;2023-07-13T07:26:00;12.02;;;4.00;;
27383;SDS011;14851;51.166;4.760;2023-07-13T07:28:26;15.38;;;3.40;;
27383;SDS011;14851;51.166;4.760;2023-07-13T07:30:56;13.75;;;4.13;;
27383;SDS011;14851;51.166;4.760;2023-07-13T07:33:24;12.85;;;3.78;;
27383;SDS011;14851;51.166;4.760;2023-07-13T07:35:50;13.65;;;3.83;;
27383;SDS011;14851;51.166;4.760;2023-07-13T07:38:16;18.02;;;4.28;;
27383;SDS011;14851;51.166;4.760;2023-07-13T07:40:44;11.75;;;3.63;;
27383;SDS011;14851;51.166;4.760;2023-07-13T07:43:11;16.45;;;3.90;;
27383;SDS011;14851;51.166;4.760;2023-07-13T07:45:40;11.68;;;3.00;;
27383;SDS011;14851;51.166;4.760;2023-07-13T07:48:06;11.95;;;3.80;;
27383;SDS011;14851;51.166;4.760;2023-07-13T07:50:34;14.02;;;3.70;;
27383;SDS011;14851;51.166;4.760;2023-07-13T07:53:00;13.63;;;3.63;;
27383;SDS011;14851;51.166;4.760;2023-07-13T07:55:27;13.15;;;2.97;;
27383;SDS011;14851;51.166;4.760;2023-07-13T07:57:54;9.13;;;3.08;;
27383;SDS011;14851;51.166;4.760;2023-07-13T08:00:21;15.18;;;3.45;;
27383;SDS011;14851;51.166;4.760;2023-07-13T08:02:47;10.38;;;2.92;;
27383;SDS011;14851;51.166;4.760;2023-07-13T08:05:15;13.00;;;3.03;;
27383;SDS011;14851;51.166;4.760;2023-07-13T08:07:41;13.00;;;3.72;;
27383;SDS011;14851;51.166;4.760;2023-07-13T08:10:07;14.23;;;3.65;;
27383;SDS011;14851;51.166;4.760;2023-07-13T08:12:34;14.02;;;3.85;;
27383;SDS011;14851;51.166;4.760;2023-07-13T08:15:02;13.50;;;3.28;;
27383;SDS011;14851;51.166;4.760;2023-07-13T08:17:29;13.55;;;3.53;;
27383;SDS011;14851;51.166;4.760;2023-07-13T08:19:55;9.55;;;3.03;;
27383;SDS011;14851;51.166;4.760;2023-07-13T08:22:20;10.63;;;3.25;;
27383;SDS011;14851;51.166;4.760;2023-07-13T08:24:46;14.23;;;3.40;;
27383;SDS011;14851;51.166;4.760;2023-07-13T08:27:20;11.13;;;3.30;;
27383;SDS011;14851;51.166;4.760;2023-07-13T08:29:50;11.07;;;2.97;;
27383;SDS011;14851;51.166;4.760;2023-07-13T08:32:17;12.15;;;2.88;;
27383;SDS011;14851;51.166;4.760;2023-07-13T08:34:44;15.10;;;2.80;;
27383;SDS011;14851;51.166;4.760;2023-07-13T08:37:09;9.23;;;2.70;;
27383;SDS011;14851;51.166;4.760;2023-07-13T08:39:36;12.93;;;3.33;;
27383;SDS011;14851;51.166;4.760;2023-07-13T08:42:51;10.45;;;3.40;;
27383;SDS011;14851;51.166;4.760;2023-07-13T08:47:30;10.15;;;2.83;;
27383;SDS011;14851;51.166;4.760;2023-07-13T08:52:31;11.55;;;4.47;;
27383;SDS011;14851;51.166;4.760;2023-07-13T08:55:14;10.65;;;3.13;;
27383;SDS011;14851;51.166;4.760;2023-07-13T08:57:42;9.32;;;3.03;;
27383;SDS011;14851;51.166;4.760;2023-07-13T09:00:16;10.02;;;3.53;;
27383;SDS011;14851;51.166;4.760;2023-07-13T09:02:46;9.13;;;2.80;;
27383;SDS011;14851;51.166;4.760;2023-07-13T09:05:30;6.30;;;2.35;;
27383;SDS011;14851;51.166;4.760;2023-07-13T09:10:45;11.55;;;2.83;;
27383;SDS011;14851;51.166;4.760;2023-07-13T09:15:46;8.52;;;2.17;;
27383;SDS011;14851;51.166;4.760;2023-07-13T09:20:47;7.43;;;2.05;;
27383;SDS011;14851;51.166;4.760;2023-07-13T09:23:17;8.25;;;1.98;;
27383;SDS011;14851;51.166;4.760;2023-07-13T09:25:53;6.38;;;2.03;;
27383;SDS011;14851;51.166;4.760;2023-07-13T09:28:25;7.30;;;2.10;;
27383;SDS011;14851;51.166;4.760;2023-07-13T09:33:44;6.25;;;2.38;;
27383;SDS011;14851;51.166;4.760;2023-07-13T09:36:27;6.60;;;2.25;;
27383;SDS011;14851;51.166;4.760;2023-07-13T09:39:09;7.25;;;2.42;;
27383;SDS011;14851;51.166;4.760;2023-07-13T09:44:28;9.77;;;2.45;;
27383;SDS011;14851;51.166;4.760;2023-07-13T09:47:21;5.25;;;2.38;;
27383;SDS011;14851;51.166;4.760;2023-07-13T09:50:05;8.95;;;2.63;;
27383;SDS011;14851;51.166;4.760;2023-07-13T09:57:52;7.40;;;2.42;;
27383;SDS011;14851;51.166;4.760;2023-07-13T10:00:20;6.65;;;2.20;;
27383;SDS011;14851;51.166;4.760;2023-07-13T10:03:00;7.78;;;2.25;;
27383;SDS011;14851;51.166;4.760;2023-07-13T10:05:38;6.80;;;2.25;;
27383;SDS011;14851;51.166;4.760;2023-07-13T10:08:05;9.00;;;2.33;;
27383;SDS011;14851;51.166;4.760;2023-07-13T10:10:32;6.07;;;2.00;;
27383;SDS011;14851;51.166;4.760;2023-07-13T10:12:58;9.38;;;2.40;;
27383;SDS011;14851;51.166;4.760;2023-07-13T10:15:27;4.57;;;1.70;;
27383;SDS011;14851;51.166;4.760;2023-07-13T10:17:54;7.35;;;2.20;;
27383;SDS011;14851;51.166;4.760;2023-07-13T10:20:23;8.33;;;2.23;;
27383;SDS011;14851;51.166;4.760;2023-07-13T10:25:21;7.53;;;1.77;;
27383;SDS011;14851;51.166;4.760;2023-07-13T10:27:51;7.15;;;1.80;;
27383;SDS011;14851;51.166;4.760;2023-07-13T10:30:25;6.25;;;1.95;;
27383;SDS011;14851;51.166;4.760;2023-07-13T10:32:57;7.95;;;2.30;;
27383;SDS011;14851;51.166;4.760;2023-07-13T10:35:24;8.60;;;2.03;;
27383;SDS011;14851;51.166;4.760;2023-07-13T10:37:56;8.98;;;2.53;;
27383;SDS011;14851;51.166;4.760;2023-07-13T10:40:37;7.03;;;1.70;;
27383;SDS011;14851;51.166;4.760;2023-07-13T10:43:31;4.43;;;1.40;;
27383;SDS011;14851;51.166;4.760;2023-07-13T10:46:07;5.28;;;1.70;;
27383;SDS011;14851;51.166;4.760;2023-07-13T10:48:39;6.63;;;1.98;;
27383;SDS011;14851;51.166;4.760;2023-07-13T10:51:07;6.72;;;1.83;;
27383;SDS011;14851;51.166;4.760;2023-07-13T10:53:38;5.10;;;1.98;;
27383;SDS011;14851;51.166;4.760;2023-07-13T10:58:40;8.60;;;2.67;;
27383;SDS011;14851;51.166;4.760;2023-07-13T11:01:11;10.55;;;2.17;;
27383;SDS011;14851;51.166;4.760;2023-07-13T11:08:59;7.18;;;1.80;;
27383;SDS011;14851;51.166;4.760;2023-07-13T11:11:50;8.15;;;2.45;;
27383;SDS011;14851;51.166;4.760;2023-07-13T11:16:54;9.13;;;3.22;;
27383;SDS011;14851;51.166;4.760;2023-07-13T11:27:40;7.78;;;2.45;;
27383;SDS011;14851;51.166;4.760;2023-07-13T11:30:21;5.78;;;1.98;;
27383;SDS011;14851;51.166;4.760;2023-07-13T11:32:51;5.05;;;1.95;;
27383;SDS011;14851;51.166;4.760;2023-07-13T11:38:19;6.28;;;1.60;;
27383;SDS011;14851;51.166;4.760;2023-07-13T11:40:51;7.68;;;2.17;;
27383;SDS011;14851;51.166;4.760;2023-07-13T11:43:20;6.90;;;1.75;;
27383;SDS011;14851;51.166;4.760;2023-07-13T11:45:48;5.38;;;1.60;;
27383;SDS011;14851;51.166;4.760;2023-07-13T11:48:23;4.53;;;1.38;;
27383;SDS011;14851;51.166;4.760;2023-07-13T11:50:53;6.55;;;1.95;;
27383;SDS011;14851;51.166;4.760;2023-07-13T11:53:37;7.03;;;1.63;;
27383;SDS011;14851;51.166;4.760;2023-07-13T11:56:06;6.53;;;1.80;;
27383;SDS011;14851;51.166;4.760;2023-07-13T11:58:32;5.28;;;1.45;;
27383;SDS011;14851;51.166;4.760;2023-07-13T12:00:59;10.02;;;1.63;;
27383;SDS011;14851;51.166;4.760;2023-07-13T12:03:29;6.95;;;1.80;;
27383;SDS011;14851;51.166;4.760;2023-07-13T12:06:04;6.57;;;1.77;;
27383;SDS011;14851;51.166;4.760;2023-07-13T12:08:38;5.90;;;1.65;;
27383;SDS011;14851;51.166;4.760;2023-07-13T12:11:15;6.47;;;1.48;;
27383;SDS011;14851;51.166;4.760;2023-07-13T12:13:43;3.78;;;2.15;;
27383;SDS011;14851;51.166;4.760;2023-07-13T12:16:14;3.83;;;1.65;;
27383;SDS011;14851;51.166;4.760;2023-07-13T12:18:47;7.60;;;2.17;;
27383;SDS011;14851;51.166;4.760;2023-07-13T12:21:16;6.32;;;2.45;;
27383;SDS011;14851;51.166;4.760;2023-07-13T12:23:47;6.80;;;2.50;;
27383;SDS011;14851;51.166;4.760;2023-07-13T12:26:14;13.45;;;2.85;;
27383;SDS011;14851;51.166;4.760;2023-07-13T12:28:46;11.52;;;3.28;;
27383;SDS011;14851;51.166;4.760;2023-07-13T12:36:36;9.13;;;2.88;;
27383;SDS011;14851;51.166;4.760;2023-07-13T12:41:42;7.95;;;2.78;;
27383;SDS011;14851;51.166;4.760;2023-07-13T12:44:39;11.95;;;2.95;;
27383;SDS011;14851;51.166;4.760;2023-07-13T12:47:09;4.32;;;2.50;;
27383;SDS011;14851;51.166;4.760;2023-07-13T12:49:58;7.55;;;3.53;;
27383;SDS011;14851;51.166;4.760;2023-07-13T12:52:34;6.78;;;3.20;;
27383;SDS011;14851;51.166;4.760;2023-07-13T12:55:06;5.68;;;3.00;;
27383;SDS011;14851;51.166;4.760;2023-07-13T13:02:56;7.05;;;3.53;;
27383;SDS011;14851;51.166;4.760;2023-07-13T13:05:25;5.75;;;3.00;;
27383;SDS011;14851;51.166;4.760;2023-07-13T13:07:52;7.75;;;3.58;;
27383;SDS011;14851;51.166;4.760;2023-07-13T13:10:18;5.60;;;2.97;;
27383;SDS011;14851;51.166;4.760;2023-07-13T13:12:46;7.88;;;2.58;;
27383;SDS011;14851;51.166;4.760;2023-07-13T13:15:15;5.03;;;2.20;;
27383;SDS011;14851;51.166;4.760;2023-07-13T13:17:43;6.53;;;2.53;;
27383;SDS011;14851;51.166;4.760;2023-07-13T13:20:16;4.65;;;2.17;;
27383;SDS011;14851;51.166;4.760;2023-07-13T13:22:45;3.15;;;2.20;;
27383;SDS011;14851;51.166;4.760;2023-07-13T13:25:13;5.85;;;2.08;;
27383;SDS011;14851;51.166;4.760;2023-07-13T13:27:45;4.47;;;1.80;;
27383;SDS011;14851;51.166;4.760;2023-07-13T13:30:15;4.38;;;2.08;;
27383;SDS011;14851;51.166;4.760;2023-07-13T13:32:47;4.05;;;2.30;;
27383;SDS011;14851;51.166;4.760;2023-07-13T13:35:14;4.03;;;2.00;;
27383;SDS011;14851;51.166;4.760;2023-07-13T13:37:41;4.47;;;2.08;;
27383;SDS011;14851;51.166;4.760;2023-07-13T13:40:18;4.10;;;2.00;;
27383;SDS011;14851;51.166;4.760;2023-07-13T13:42:48;5.75;;;1.98;;
27383;SDS011;14851;51.166;4.760;2023-07-13T13:45:16;4.60;;;2.25;;
27383;SDS011;14851;51.166;4.760;2023-07-13T13:47:44;5.18;;;1.98;;
27383;SDS011;14851;51.166;4.760;2023-07-13T13:50:13;4.90;;;2.05;;
27383;SDS011;14851;51.166;4.760;2023-07-13T13:52:41;4.97;;;2.25;;
27383;SDS011;14851;51.166;4.760;2023-07-13T13:55:11;4.10;;;1.88;;
27383;SDS011;14851;51.166;4.760;2023-07-13T13:57:39;3.15;;;1.85;;
27383;SDS011;14851;51.166;4.760;2023-07-13T14:00:10;4.63;;;1.95;;
27383;SDS011;14851;51.166;4.760;2023-07-13T14:02:39;4.95;;;1.95;;
27383;SDS011;14851;51.166;4.760;2023-07-13T14:05:12;5.82;;;2.50;;
27383;SDS011;14851;51.166;4.760;2023-07-13T14:07:40;3.40;;;1.90;;
27383;SDS011;14851;51.166;4.760;2023-07-13T14:10:11;4.47;;;1.75;;
27383;SDS011;14851;51.166;4.760;2023-07-13T14:12:40;3.15;;;2.22;;
27383;SDS011;14851;51.166;4.760;2023-07-13T14:15:26;2.92;;;1.70;;
27383;SDS011;14851;51.166;4.760;2023-07-13T14:17:53;5.85;;;2.10;;
27383;SDS011;14851;51.166;4.760;2023-07-13T14:20:20;4.70;;;1.90;;
27383;SDS011;14851;51.166;4.760;2023-07-13T14:22:49;4.32;;;1.67;;
27383;SDS011;14851;51.166;4.760;2023-07-13T14:25:21;3.35;;;1.52;;
27383;SDS011;14851;51.166;4.760;2023-07-13T14:27:53;5.15;;;1.70;;
27383;SDS011;14851;51.166;4.760;2023-07-13T14:30:24;5.72;;;2.05;;
27383;SDS011;14851;51.166;4.760;2023-07-13T14:32:55;4.20;;;1.50;;
27383;SDS011;14851;51.166;4.760;2023-07-13T14:35:22;4.10;;;1.60;;
27383;SDS011;14851;51.166;4.760;2023-07-13T14:37:53;3.58;;;1.40;;
27383;SDS011;14851;51.166;4.760;2023-07-13T14:40:25;2.95;;;1.25;;
27383;SDS011;14851;51.166;4.760;2023-07-13T14:42:54;5.25;;;2.03;;
27383;SDS011;14851;51.166;4.760;2023-07-13T14:45:25;4.63;;;2.00;;
27383;SDS011;14851;51.166;4.760;2023-07-13T14:47:51;4.35;;;1.58;;
27383;SDS011;14851;51.166;4.760;2023-07-13T14:50:18;3.83;;;1.60;;
27383;SDS011;14851;51.166;4.760;2023-07-13T14:52:46;3.97;;;1.73;;
27383;SDS011;14851;51.166;4.760;2023-07-13T14:55:18;2.60;;;1.60;;
27383;SDS011;14851;51.166;4.760;2023-07-13T14:57:44;5.32;;;1.90;;
27383;SDS011;14851;51.166;4.760;2023-07-13T15:00:21;3.83;;;1.35;;
27383;SDS011;14851;51.166;4.760;2023-07-13T15:02:52;3.55;;;1.63;;
27383;SDS011;14851;51.166;4.760;2023-07-13T15:05:25;3.70;;;1.60;;
27383;SDS011;14851;51.166;4.760;2023-07-13T15:07:59;4.28;;;2.20;;
27383;SDS011;14851;51.166;4.760;2023-07-13T15:10:28;3.00;;;1.50;;
27383;SDS011;14851;51.166;4.760;2023-07-13T15:12:59;4.10;;;1.67;;
27383;SDS011;14851;51.166;4.760;2023-07-13T15:15:40;3.65;;;1.90;;
27383;SDS011;14851;51.166;4.760;2023-07-13T15:18:12;5.43;;;1.65;;
27383;SDS011;14851;51.166;4.760;2023-07-13T15:20:42;3.30;;;1.83;;
27383;SDS011;14851;51.166;4.760;2023-07-13T15:23:10;3.55;;;1.55;;
27383;SDS011;14851;51.166;4.760;2023-07-13T15:25:41;4.68;;;1.70;;
27383;SDS011;14851;51.166;4.760;2023-07-13T15:28:09;3.85;;;1.45;;
27383;SDS011;14851;51.166;4.760;2023-07-13T15:30:42;5.72;;;1.77;;
27383;SDS011;14851;51.166;4.760;2023-07-13T15:33:14;2.65;;;1.35;;
27383;SDS011;14851;51.166;4.760;2023-07-13T15:35:52;4.63;;;1.30;;
27383;SDS011;14851;51.166;4.760;2023-07-13T15:38:28;6.80;;;2.00;;
27383;SDS011;14851;51.166;4.760;2023-07-13T15:40:56;3.28;;;1.40;;
27383;SDS011;14851;51.166;4.760;2023-07-13T15:43:22;6.60;;;1.70;;
27383;SDS011;14851;51.166;4.760;2023-07-13T15:45:48;3.10;;;1.38;;
27383;SDS011;14851;51.166;4.760;2023-07-13T15:48:20;4.65;;;1.50;;
27383;SDS011;14851;51.166;4.760;2023-07-13T15:50:48;5.22;;;1.50;;
27383;SDS011;14851;51.166;4.760;2023-07-13T15:53:29;7.47;;;1.60;;
27383;SDS011;14851;51.166;4.760;2023-07-13T15:55:56;4.32;;;1.60;;
27383;SDS011;14851;51.166;4.760;2023-07-13T15:58:23;4.07;;;1.50;;
27383;SDS011;14851;51.166;4.760;2023-07-13T16:00:50;4.20;;;1.60;;
27383;SDS011;14851;51.166;4.760;2023-07-13T16:03:20;4.70;;;1.63;;